sensor_id;sensor_type;location;lat;lon;timestamp;pressure;altitude;pressure_sealevel;temperature;humidity
29903;BME280;30288;50.514;9.678;2023-04-04T00:00:34;99864.91;;;1.37;100.00
29903;BME280;30288;50.514;9.678;2023-04-04T00:02:40;99865.03;;;1.42;100.00
29903;BME280;30288;50.514;9.678;2023-04-04T00:04:48;99863.22;;;1.36;100.00
29903;BME280;30288;50.514;9.678;2023-04-04T00:06:54;99859.78;;;1.31;100.00
29903;BME280;30288;50.514;9.678;2023-04-04T00:09:00;99863.16;;;1.33;100.00
29903;BME280;30288;50.514;9.678;2023-04-04T00:11:05;99857.28;;;1.31;100.00
29903;BME280;30288;50.514;9.678;2023-04-04T00:13:10;99859.81;;;1.33;100.00
29903;BME280;30288;50.514;9.678;2023-04-04T00:15:15;99864.72;;;1.31;100.00
29903;BME280;30288;50.514;9.678;2023-04-04T00:17:21;99858.97;;;1.32;100.00
29903;BME280;30288;50.514;9.678;2023-04-04T00:19:26;99858.13;;;1.31;100.00
29903;BME280;30288;50.514;9.678;2023-04-04T00:21:33;99858.88;;;1.29;100.00
29903;BME280;30288;50.514;9.678;2023-04-04T00:23:38;99858.72;;;1.23;100.00
29903;BME280;30288;50.514;9.678;2023-04-04T00:25:48;99852.13;;;1.23;100.00
29903;BME280;30288;50.514;9.678;2023-04-04T00:27:54;99859.66;;;1.26;100.00
29903;BME280;30288;50.514;9.678;2023-04-04T00:30:03;99855.31;;;1.19;100.00
29903;BME280;30288;50.514;9.678;2023-04-04T00:32:08;99858.56;;;1.17;100.00
29903;BME280;30288;50.514;9.678;2023-04-04T00:34:13;99854.38;;;1.16;100.00
29903;BME280;30288;50.514;9.678;2023-04-04T00:36:18;99855.19;;;1.15;100.00
29903;BME280;30288;50.514;9.678;2023-04-04T00:38:27;99853.34;;;1.08;100.00
29903;BME280;30288;50.514;9.678;2023-04-04T00:40:32;99845.97;;;1.11;100.00
29903;BME280;30288;50.514;9.678;2023-04-04T00:42:38;99858.06;;;0.99;100.00
29903;BME280;30288;50.514;9.678;2023-04-04T00:44:43;99849.81;;;1.00;100.00
29903;BME280;30288;50.514;9.678;2023-04-04T00:46:48;99843.16;;;0.99;100.00
29903;BME280;30288;50.514;9.678;2023-04-04T00:48:53;99843.06;;;0.96;100.00
29903;BME280;30288;50.514;9.678;2023-04-04T00:50:59;99843.06;;;0.96;100.00
29903;BME280;30288;50.514;9.678;2023-04-04T00:53:04;99845.59;;;0.97;100.00
29903;BME280;30288;50.514;9.678;2023-04-04T00:55:11;99843.00;;;0.93;100.00
29903;BME280;30288;50.514;9.678;2023-04-04T00:57:17;99846.38;;;0.95;100.00
29903;BME280;30288;50.514;9.678;2023-04-04T00:59:25;99840.50;;;0.93;100.00
29903;BME280;30288;50.514;9.678;2023-04-04T01:01:31;99838.03;;;0.93;100.00
29903;BME280;30288;50.514;9.678;2023-04-04T01:03:36;99837.78;;;0.83;100.00
29903;BME280;30288;50.514;9.678;2023-04-04T01:05:43;99839.28;;;0.78;100.00
29903;BME280;30288;50.514;9.678;2023-04-04T01:07:48;99844.91;;;0.73;100.00
29903;BME280;30288;50.514;9.678;2023-04-04T01:09:55;99838.94;;;0.66;100.00
29903;BME280;30288;50.514;9.678;2023-04-04T01:12:04;99837.97;;;0.63;100.00
29903;BME280;30288;50.514;9.678;2023-04-04T01:14:09;99841.28;;;0.62;100.00
29903;BME280;30288;50.514;9.678;2023-04-04T01:16:14;99841.28;;;0.62;100.00
29903;BME280;30288;50.514;9.678;2023-04-04T01:18:21;99837.06;;;0.59;100.00
29903;BME280;30288;50.514;9.678;2023-04-04T01:20:29;99842.09;;;0.62;100.00
29903;BME280;30288;50.514;9.678;2023-04-04T01:22:37;99832.28;;;0.65;100.00
29903;BME280;30288;50.514;9.678;2023-04-04T01:24:44;99827.34;;;0.65;100.00
29903;BME280;30288;50.514;9.678;2023-04-04T01:26:53;99826.41;;;0.62;100.00
29903;BME280;30288;50.514;9.678;2023-04-04T01:28:59;99822.97;;;0.57;100.00
29903;BME280;30288;50.514;9.678;2023-04-04T01:31:06;99821.13;;;0.51;100.00
29903;BME280;30288;50.514;9.678;2023-04-04T01:33:21;99822.66;;;0.48;100.00
29903;BME280;30288;50.514;9.678;2023-04-04T01:35:36;99824.91;;;0.40;100.00
29903;BME280;30288;50.514;9.678;2023-04-04T01:37:53;99827.25;;;0.35;100.00
29903;BME280;30288;50.514;9.678;2023-04-04T01:40:17;99827.97;;;0.31;100.00
29903;BME280;30288;50.514;9.678;2023-04-04T01:42:27;99826.22;;;0.29;100.00
29903;BME280;30288;50.514;9.678;2023-04-04T01:44:32;99824.28;;;0.19;100.00
29903;BME280;30288;50.514;9.678;2023-04-04T01:46:38;99826.63;;;0.14;100.00
29903;BME280;30288;50.514;9.678;2023-04-04T01:48:45;99822.59;;;0.18;100.00
29903;BME280;30288;50.514;9.678;2023-04-04T01:50:54;99823.44;;;0.18;100.00
29903;BME280;30288;50.514;9.678;2023-04-04T01:53:01;99830.06;;;0.19;100.00
29903;BME280;30288;50.514;9.678;2023-04-04T01:55:07;99829.13;;;0.16;100.00
29903;BME280;30288;50.514;9.678;2023-04-04T01:57:13;99829.81;;;0.12;100.00
29903;BME280;30288;50.514;9.678;2023-04-04T01:59:21;99822.41;;;0.12;100.00
29903;BME280;30288;50.514;9.678;2023-04-04T02:01:26;99823.81;;;0.04;100.00
29903;BME280;30288;50.514;9.678;2023-04-04T02:03:32;99816.88;;;-0.07;100.00
29903;BME280;30288;50.514;9.678;2023-04-04T02:05:37;99814.25;;;-0.11;100.00
29903;BME280;30288;50.514;9.678;2023-04-04T02:07:47;99815.09;;;-0.11;100.00
29903;BME280;30288;50.514;9.678;2023-04-04T02:10:06;99824.94;;;-0.12;100.00
29903;BME280;30288;50.514;9.678;2023-04-04T02:12:12;99823.22;;;-0.15;100.00
29903;BME280;30288;50.514;9.678;2023-04-04T02:14:17;99822.25;;;-0.18;100.00
29903;BME280;30288;50.514;9.678;2023-04-04T02:16:26;99827.19;;;-0.20;100.00
29903;BME280;30288;50.514;9.678;2023-04-04T02:18:32;99821.53;;;-0.16;100.00
29903;BME280;30288;50.514;9.678;2023-04-04T02:20:37;99827.47;;;-0.11;100.00
29903;BME280;30288;50.514;9.678;2023-04-04T02:22:50;99816.66;;;-0.13;100.00
29903;BME280;30288;50.514;9.678;2023-04-04T02:24:56;99825.72;;;-0.13;100.00
29903;BME280;30288;50.514;9.678;2023-04-04T02:27:03;99820.22;;;-0.05;100.00
29903;BME280;30288;50.514;9.678;2023-04-04T02:29:09;99817.56;;;-0.11;100.00
29903;BME280;30288;50.514;9.678;2023-04-04T02:31:14;99811.63;;;-0.16;100.00
29903;BME280;30288;50.514;9.678;2023-04-04T02:33:22;99811.63;;;-0.16;100.00
29903;BME280;30288;50.514;9.678;2023-04-04T02:35:27;99808.25;;;-0.18;100.00
29903;BME280;30288;50.514;9.678;2023-04-04T02:37:32;99816.88;;;-0.07;100.00
29903;BME280;30288;50.514;9.678;2023-04-04T02:39:41;99809.09;;;-0.17;100.00
29903;BME280;30288;50.514;9.678;2023-04-04T02:41:46;99806.41;;;-0.25;100.00
29903;BME280;30288;50.514;9.678;2023-04-04T02:43:51;99820.28;;;-0.28;100.00
29903;BME280;30288;50.514;9.678;2023-04-04T02:45:57;99811.13;;;-0.31;100.00
29903;BME280;30288;50.514;9.678;2023-04-04T02:48:22;99813.38;;;-0.38;100.00
29903;BME280;30288;50.514;9.678;2023-04-04T02:50:32;99804.13;;;-0.44;100.00
29903;BME280;30288;50.514;9.678;2023-04-04T02:52:37;99800.44;;;-0.55;100.00
29903;BME280;30288;50.514;9.678;2023-04-04T02:54:50;99804.97;;;-0.67;100.00
29903;BME280;30288;50.514;9.678;2023-04-04T02:57:04;99791.31;;;-0.81;100.00
29903;BME280;30288;50.514;9.678;2023-04-04T02:59:09;99804.31;;;-0.85;100.00
29903;BME280;30288;50.514;9.678;2023-04-04T03:01:14;99800.66;;;-0.97;100.00
29903;BME280;30288;50.514;9.678;2023-04-04T03:03:22;99796.25;;;-1.05;100.00
29903;BME280;30288;50.514;9.678;2023-04-04T03:05:29;99795.41;;;-1.06;100.00
29903;BME280;30288;50.514;9.678;2023-04-04T03:07:35;99794.06;;;-1.20;100.00
29903;BME280;30288;50.514;9.678;2023-04-04T03:09:42;99796.22;;;-1.29;100.00
29903;BME280;30288;50.514;9.678;2023-04-04T03:11:49;99787.91;;;-1.31;100.00
29903;BME280;30288;50.514;9.678;2023-04-04T03:13:54;99784.31;;;-1.39;100.00
29903;BME280;30288;50.514;9.678;2023-04-04T03:16:11;99788.31;;;-1.43;100.00
29903;BME280;30288;50.514;9.678;2023-04-04T03:18:25;99782.63;;;-1.40;100.00
29903;BME280;30288;50.514;9.678;2023-04-04T03:20:30;99792.50;;;-1.40;100.00
29903;BME280;30288;50.514;9.678;2023-04-04T03:22:35;99789.03;;;-1.45;100.00
29903;BME280;30288;50.514;9.678;2023-04-04T03:24:41;99783.16;;;-1.47;100.00
29903;BME280;30288;50.514;9.678;2023-04-04T03:26:47;99784.53;;;-1.55;100.00
29903;BME280;30288;50.514;9.678;2023-04-04T03:28:52;99773.78;;;-1.57;100.00
29903;BME280;30288;50.514;9.678;2023-04-04T03:31:03;99777.56;;;-1.65;100.00
29903;BME280;30288;50.514;9.678;2023-04-04T03:33:13;99769.81;;;-1.74;100.00
29903;BME280;30288;50.514;9.678;2023-04-04T03:35:21;99767.78;;;-1.85;100.00
29903;BME280;30288;50.514;9.678;2023-04-04T03:37:27;99771.41;;;-1.97;100.00
29903;BME280;30288;50.514;9.678;2023-04-04T03:39:32;99768.66;;;-2.05;100.00
29903;BME280;30288;50.514;9.678;2023-04-04T03:41:37;99768.28;;;-1.93;100.00
29903;BME280;30288;50.514;9.678;2023-04-04T03:43:43;99758.13;;;-2.01;100.00
29903;BME280;30288;50.514;9.678;2023-04-04T03:45:49;99755.66;;;-2.01;100.00
29903;BME280;30288;50.514;9.678;2023-04-04T03:47:55;99754.41;;;-2.12;100.00
29903;BME280;30288;50.514;9.678;2023-04-04T03:50:01;99752.94;;;-2.07;100.00
29903;BME280;30288;50.514;9.678;2023-04-04T03:52:10;99758.56;;;-2.11;100.00
29903;BME280;30288;50.514;9.678;2023-04-04T03:54:15;99758.97;;;-2.21;100.00
29903;BME280;30288;50.514;9.678;2023-04-04T03:56:20;99752.78;;;-2.32;100.00
29903;BME280;30288;50.514;9.678;2023-04-04T03:58:26;99753.44;;;-2.36;100.00
29903;BME280;30288;50.514;9.678;2023-04-04T04:00:32;99754.00;;;-2.43;100.00
29903;BME280;30288;50.514;9.678;2023-04-04T04:02:37;99744.59;;;-2.31;100.00
29903;BME280;30288;50.514;9.678;2023-04-04T04:04:44;99746.03;;;-2.36;100.00
29903;BME280;30288;50.514;9.678;2023-04-04T04:06:49;99746.78;;;-2.39;100.00
29903;BME280;30288;50.514;9.678;2023-04-04T04:08:57;99751.19;;;-2.51;100.00
29903;BME280;30288;50.514;9.678;2023-04-04T04:11:05;99743.50;;;-2.58;100.00
29903;BME280;30288;50.514;9.678;2023-04-04T04:13:10;99746.63;;;-2.62;100.00
29903;BME280;30288;50.514;9.678;2023-04-04T04:15:15;99748.44;;;-2.58;100.00
29903;BME280;30288;50.514;9.678;2023-04-04T04:17:21;99751.78;;;-2.56;100.00
29903;BME280;30288;50.514;9.678;2023-04-04T04:19:27;99753.75;;;-2.49;100.00
29903;BME280;30288;50.514;9.678;2023-04-04T04:21:32;99756.34;;;-2.66;100.00
29903;BME280;30288;50.514;9.678;2023-04-04T04:23:37;99749.50;;;-2.73;100.00
29903;BME280;30288;50.514;9.678;2023-04-04T04:25:46;99748.97;;;-2.66;100.00
29903;BME280;30288;50.514;9.678;2023-04-04T04:27:55;99757.56;;;-2.77;100.00
29903;BME280;30288;50.514;9.678;2023-04-04T04:30:02;99753.91;;;-2.85;100.00
29903;BME280;30288;50.514;9.678;2023-04-04T04:32:15;99755.50;;;-2.87;100.00
29903;BME280;30288;50.514;9.678;2023-04-04T04:34:25;99747.69;;;-2.77;100.00
29903;BME280;30288;50.514;9.678;2023-04-04T04:36:33;99749.28;;;-2.58;100.00
29903;BME280;30288;50.514;9.678;2023-04-04T04:38:50;99750.78;;;-2.61;100.00
29903;BME280;30288;50.514;9.678;2023-04-04T04:40:59;99755.78;;;-2.79;100.00
29903;BME280;30288;50.514;9.678;2023-04-04T04:43:14;99755.75;;;-2.81;100.00
29903;BME280;30288;50.514;9.678;2023-04-04T04:45:20;99744.19;;;-2.82;100.00
29903;BME280;30288;50.514;9.678;2023-04-04T04:47:37;99738.69;;;-2.76;100.00
29903;BME280;30288;50.514;9.678;2023-04-04T04:49:45;99746.28;;;-2.72;100.00
29903;BME280;30288;50.514;9.678;2023-04-04T04:51:55;99753.97;;;-2.83;100.00
29903;BME280;30288;50.514;9.678;2023-04-04T04:54:01;99750.03;;;-2.80;100.00
29903;BME280;30288;50.514;9.678;2023-04-04T04:56:09;99751.25;;;-2.70;100.00
29903;BME280;30288;50.514;9.678;2023-04-04T04:58:17;99760.69;;;-2.81;100.00
29903;BME280;30288;50.514;9.678;2023-04-04T05:00:29;99758.84;;;-2.85;100.00
29903;BME280;30288;50.514;9.678;2023-04-04T05:02:35;99754.19;;;-2.79;100.00
29903;BME280;30288;50.514;9.678;2023-04-04T05:04:40;99760.72;;;-2.79;100.00
29903;BME280;30288;50.514;9.678;2023-04-04T05:06:48;99755.34;;;-2.90;100.00
29903;BME280;30288;50.514;9.678;2023-04-04T05:08:55;99758.72;;;-2.88;100.00
29903;BME280;30288;50.514;9.678;2023-04-04T05:11:10;99761.72;;;-2.95;100.00
29903;BME280;30288;50.514;9.678;2023-04-04T05:13:16;99755.59;;;-2.84;100.00
29903;BME280;30288;50.514;9.678;2023-04-04T05:15:22;99762.22;;;-2.83;100.00
29903;BME280;30288;50.514;9.678;2023-04-04T05:17:31;99754.44;;;-2.73;100.00
29903;BME280;30288;50.514;9.678;2023-04-04T05:19:41;99766.38;;;-2.62;100.00
29903;BME280;30288;50.514;9.678;2023-04-04T05:21:51;99759.19;;;-2.56;100.00
29903;BME280;30288;50.514;9.678;2023-04-04T05:24:08;99771.94;;;-2.67;100.00
29903;BME280;30288;50.514;9.678;2023-04-04T05:26:17;99771.78;;;-2.50;100.00
29903;BME280;30288;50.514;9.678;2023-04-04T05:28:25;99768.78;;;-2.43;100.00
29903;BME280;30288;50.514;9.678;2023-04-04T05:30:34;99772.50;;;-2.32;100.00
29903;BME280;30288;50.514;9.678;2023-04-04T05:32:50;99774.34;;;-2.28;100.00
29903;BME280;30288;50.514;9.678;2023-04-04T05:35:00;99773.00;;;-2.20;100.00
29903;BME280;30288;50.514;9.678;2023-04-04T05:37:10;99776.72;;;-2.09;100.00
29903;BME280;30288;50.514;9.678;2023-04-04T05:39:19;99775.41;;;-2.01;100.00
29903;BME280;30288;50.514;9.678;2023-04-04T05:41:37;99772.38;;;-1.94;100.00
29903;BME280;30288;50.514;9.678;2023-04-04T05:43:49;99777.31;;;-1.94;100.00
29903;BME280;30288;50.514;9.678;2023-04-04T05:45:57;99780.78;;;-1.89;100.00
29903;BME280;30288;50.514;9.678;2023-04-04T05:48:09;99780.53;;;-1.74;100.00
29903;BME280;30288;50.514;9.678;2023-04-04T05:50:22;99774.41;;;-1.61;100.00
29903;BME280;30288;50.514;9.678;2023-04-04T05:52:34;99782.91;;;-1.55;100.00
29903;BME280;30288;50.514;9.678;2023-04-04T05:54:45;99789.53;;;-1.54;100.00
29903;BME280;30288;50.514;9.678;2023-04-04T05:57:01;99783.97;;;-1.48;100.00
29903;BME280;30288;50.514;9.678;2023-04-04T05:59:29;99788.22;;;-1.22;100.00
29903;BME280;30288;50.514;9.678;2023-04-04T06:01:37;99784.66;;;-1.06;100.00
29903;BME280;30288;50.514;9.678;2023-04-04T06:03:46;99785.50;;;-1.06;100.00
29903;BME280;30288;50.514;9.678;2023-04-04T06:05:58;99786.38;;;-1.04;100.00
29903;BME280;30288;50.514;9.678;2023-04-04T06:08:07;99785.94;;;-0.94;100.00
29903;BME280;30288;50.514;9.678;2023-04-04T06:10:13;99785.31;;;-0.88;100.00
29903;BME280;30288;50.514;9.678;2023-04-04T06:12:20;99788.03;;;-0.80;100.00
29903;BME280;30288;50.514;9.678;2023-04-04T06:14:26;99789.94;;;-0.73;100.00
29903;BME280;30288;50.514;9.678;2023-04-04T06:16:33;99785.38;;;-0.61;100.00
29903;BME280;30288;50.514;9.678;2023-04-04T06:18:39;99785.81;;;-0.49;100.00
29903;BME280;30288;50.514;9.678;2023-04-04T06:20:45;99787.66;;;-0.42;100.00
29903;BME280;30288;50.514;9.678;2023-04-04T06:22:51;99784.56;;;-0.36;100.00
29903;BME280;30288;50.514;9.678;2023-04-04T06:24:56;99796.22;;;-0.32;100.00
29903;BME280;30288;50.514;9.678;2023-04-04T06:27:03;99789.84;;;-0.26;100.00
29903;BME280;30288;50.514;9.678;2023-04-04T06:29:13;99797.63;;;-0.15;100.00
29903;BME280;30288;50.514;9.678;2023-04-04T06:31:19;99793.91;;;-0.03;100.00
29903;BME280;30288;50.514;9.678;2023-04-04T06:33:27;99790.47;;;0.21;100.00
29903;BME280;30288;50.514;9.678;2023-04-04T06:35:32;99788.19;;;0.27;100.00
29903;BME280;30288;50.514;9.678;2023-04-04T06:37:38;99795.09;;;0.37;100.00
29903;BME280;30288;50.514;9.678;2023-04-04T06:39:48;99787.16;;;0.47;100.00
29903;BME280;30288;50.514;9.678;2023-04-04T06:41:59;99787.50;;;0.59;100.00
29903;BME280;30288;50.514;9.678;2023-04-04T06:44:07;99786.31;;;0.76;100.00
29903;BME280;30288;50.514;9.678;2023-04-04T06:46:16;99788.25;;;0.86;100.00
29903;BME280;30288;50.514;9.678;2023-04-04T06:48:21;99791.03;;;0.97;100.00
29903;BME280;30288;50.514;9.678;2023-04-04T06:50:29;99787.25;;;1.10;100.00
29903;BME280;30288;50.514;9.678;2023-04-04T06:52:38;99793.34;;;1.21;100.00
29903;BME280;30288;50.514;9.678;2023-04-04T06:54:43;99789.63;;;1.38;100.00
29903;BME280;30288;50.514;9.678;2023-04-04T06:56:49;99797.28;;;1.46;100.00
29903;BME280;30288;50.514;9.678;2023-04-04T06:58:54;99791.88;;;1.60;100.00
29903;BME280;30288;50.514;9.678;2023-04-04T07:01:00;99788.72;;;1.67;100.00
29903;BME280;30288;50.514;9.678;2023-04-04T07:03:08;99789.03;;;1.80;100.00
29903;BME280;30288;50.514;9.678;2023-04-04T07:05:14;99789.25;;;1.89;100.00
29903;BME280;30288;50.514;9.678;2023-04-04T07:07:19;99790.50;;;2.07;100.00
29903;BME280;30288;50.514;9.678;2023-04-04T07:09:24;99792.81;;;2.00;100.00
29903;BME280;30288;50.514;9.678;2023-04-04T07:11:30;99794.66;;;2.07;100.00
29903;BME280;30288;50.514;9.678;2023-04-04T07:13:36;99800.38;;;2.04;100.00
29903;BME280;30288;50.514;9.678;2023-04-04T07:15:45;99790.88;;;2.23;100.00
29903;BME280;30288;50.514;9.678;2023-04-04T07:17:53;99796.88;;;2.32;100.00
29903;BME280;30288;50.514;9.678;2023-04-04T07:20:02;99787.34;;;2.50;100.00
29903;BME280;30288;50.514;9.678;2023-04-04T07:22:08;99791.06;;;2.71;100.00
29903;BME280;30288;50.514;9.678;2023-04-04T07:24:14;99791.06;;;2.71;100.00
29903;BME280;30288;50.514;9.678;2023-04-04T07:26:19;99786.19;;;2.77;100.00
29903;BME280;30288;50.514;9.678;2023-04-04T07:28:24;99781.59;;;2.95;100.00
29903;BME280;30288;50.514;9.678;2023-04-04T07:30:30;99779.19;;;2.99;100.00
29903;BME280;30288;50.514;9.678;2023-04-04T07:32:35;99784.81;;;2.91;100.00
29903;BME280;30288;50.514;9.678;2023-04-04T07:34:40;99785.94;;;3.05;100.00
29903;BME280;30288;50.514;9.678;2023-04-04T07:36:48;99780.47;;;3.24;100.00
29903;BME280;30288;50.514;9.678;2023-04-04T07:38:55;99787.19;;;3.28;100.00
29903;BME280;30288;50.514;9.678;2023-04-04T07:41:00;99776.41;;;3.28;100.00
29903;BME280;30288;50.514;9.678;2023-04-04T07:43:05;99780.59;;;3.30;100.00
29903;BME280;30288;50.514;9.678;2023-04-04T07:45:11;99787.38;;;3.37;100.00
29903;BME280;30288;50.514;9.678;2023-04-04T07:47:16;99779.38;;;3.57;100.00
29903;BME280;30288;50.514;9.678;2023-04-04T07:49:22;99779.91;;;3.87;100.00
29903;BME280;30288;50.514;9.678;2023-04-04T07:51:27;99785.16;;;4.05;100.00
29903;BME280;30288;50.514;9.678;2023-04-04T07:53:35;99780.13;;;4.02;100.00
29903;BME280;30288;50.514;9.678;2023-04-04T07:55:40;99767.00;;;4.12;100.00
29903;BME280;30288;50.514;9.678;2023-04-04T07:57:45;99769.72;;;4.27;100.00
29903;BME280;30288;50.514;9.678;2023-04-04T07:59:51;99777.09;;;4.21;100.00
29903;BME280;30288;50.514;9.678;2023-04-04T08:01:56;99776.25;;;4.21;100.00
29903;BME280;30288;50.514;9.678;2023-04-04T08:04:01;99777.97;;;4.25;100.00
29903;BME280;30288;50.514;9.678;2023-04-04T08:06:07;99778.19;;;4.40;100.00
29903;BME280;30288;50.514;9.678;2023-04-04T08:08:13;99768.41;;;4.55;100.00
29903;BME280;30288;50.514;9.678;2023-04-04T08:10:21;99769.34;;;4.63;100.00
29903;BME280;30288;50.514;9.678;2023-04-04T08:12:26;99768.66;;;4.75;100.00
29903;BME280;30288;50.514;9.678;2023-04-04T08:14:31;99767.25;;;4.97;100.00
29903;BME280;30288;50.514;9.678;2023-04-04T08:16:36;99769.13;;;5.16;100.00
29903;BME280;30288;50.514;9.678;2023-04-04T08:18:42;99765.06;;;5.25;100.00
29903;BME280;30288;50.514;9.678;2023-04-04T08:20:47;99763.16;;;5.03;100.00
29903;BME280;30288;50.514;9.678;2023-04-04T08:22:52;99763.16;;;5.03;100.00
29903;BME280;30288;50.514;9.678;2023-04-04T08:24:58;99764.91;;;5.13;100.00
29903;BME280;30288;50.514;9.678;2023-04-04T08:27:07;99766.84;;;5.42;100.00
29903;BME280;30288;50.514;9.678;2023-04-04T08:29:12;99758.56;;;5.43;100.00
29903;BME280;30288;50.514;9.678;2023-04-04T08:31:18;99759.44;;;5.46;100.00
29903;BME280;30288;50.514;9.678;2023-04-04T08:33:23;99757.88;;;5.59;100.00
29903;BME280;30288;50.514;9.678;2023-04-04T08:35:47;99753.84;;;5.76;100.00
29903;BME280;30288;50.514;9.678;2023-04-04T08:37:52;99753.16;;;5.91;100.00
29903;BME280;30288;50.514;9.678;2023-04-04T08:39:58;99754.16;;;6.12;100.00
29903;BME280;30288;50.514;9.678;2023-04-04T08:42:06;99744.25;;;6.37;100.00
29903;BME280;30288;50.514;9.678;2023-04-04T08:44:16;99746.00;;;6.56;100.00
29903;BME280;30288;50.514;9.678;2023-04-04T08:46:25;99739.28;;;6.43;96.19
29903;BME280;30288;50.514;9.678;2023-04-04T08:48:31;99732.59;;;6.42;99.08
29903;BME280;30288;50.514;9.678;2023-04-04T08:50:37;99745.19;;;6.54;100.00
29903;BME280;30288;50.514;9.678;2023-04-04T08:52:43;99739.38;;;6.61;95.77
29903;BME280;30288;50.514;9.678;2023-04-04T08:54:50;99747.66;;;6.48;97.35
29903;BME280;30288;50.514;9.678;2023-04-04T08:56:56;99742.72;;;6.63;100.00
29903;BME280;30288;50.514;9.678;2023-04-04T08:59:04;99749.38;;;6.61;100.00
29903;BME280;30288;50.514;9.678;2023-04-04T09:01:13;99742.72;;;6.66;94.89
29903;BME280;30288;50.514;9.678;2023-04-04T09:03:22;99749.44;;;6.73;96.58
29903;BME280;30288;50.514;9.678;2023-04-04T09:05:28;99737.78;;;6.78;94.60
29903;BME280;30288;50.514;9.678;2023-04-04T09:07:34;99741.16;;;6.92;94.49
29903;BME280;30288;50.514;9.678;2023-04-04T09:09:43;99743.72;;;7.11;100.00
29903;BME280;30288;50.514;9.678;2023-04-04T09:11:50;99737.88;;;7.18;89.18
29903;BME280;30288;50.514;9.678;2023-04-04T09:13:57;99736.19;;;7.08;89.89
29903;BME280;30288;50.514;9.678;2023-04-04T09:16:07;99739.47;;;6.94;92.15
29903;BME280;30288;50.514;9.678;2023-04-04T09:18:12;99729.53;;;7.22;94.34
29903;BME280;30288;50.514;9.678;2023-04-04T09:20:34;99725.34;;;7.22;90.71
29903;BME280;30288;50.514;9.678;2023-04-04T09:22:44;99727.88;;;7.27;87.33
29903;BME280;30288;50.514;9.678;2023-04-04T09:24:49;99727.88;;;7.39;93.03
29903;BME280;30288;50.514;9.678;2023-04-04T09:26:54;99727.91;;;7.54;93.01
29903;BME280;30288;50.514;9.678;2023-04-04T09:29:00;99728.72;;;7.59;88.20
29903;BME280;30288;50.514;9.678;2023-04-04T09:31:09;99727.91;;;7.60;91.18
29903;BME280;30288;50.514;9.678;2023-04-04T09:33:17;99727.88;;;7.30;89.77
29903;BME280;30288;50.514;9.678;2023-04-04T09:35:23;99732.78;;;6.90;97.28
29903;BME280;30288;50.514;9.678;2023-04-04T09:37:30;99728.59;;;6.80;94.24
29903;BME280;30288;50.514;9.678;2023-04-04T09:39:38;99721.97;;;6.88;94.78
29903;BME280;30288;50.514;9.678;2023-04-04T09:41:45;99719.44;;;6.79;93.46
29903;BME280;30288;50.514;9.678;2023-04-04T09:43:51;99731.13;;;6.89;99.64
29903;BME280;30288;50.514;9.678;2023-04-04T09:45:59;99724.44;;;6.94;93.54
29903;BME280;30288;50.514;9.678;2023-04-04T09:48:07;99726.16;;;7.04;93.38
29903;BME280;30288;50.514;9.678;2023-04-04T09:50:20;99726.22;;;7.35;96.92
29903;BME280;30288;50.514;9.678;2023-04-04T09:52:26;99731.22;;;7.80;96.54
29903;BME280;30288;50.514;9.678;2023-04-04T09:54:36;99732.91;;;7.77;92.80
29903;BME280;30288;50.514;9.678;2023-04-04T09:56:49;99721.19;;;7.93;90.94
29903;BME280;30288;50.514;9.678;2023-04-04T09:58:55;99733.66;;;7.00;92.26
29903;BME280;30288;50.514;9.678;2023-04-04T10:01:08;99736.09;;;6.74;92.70
29903;BME280;30288;50.514;9.678;2023-04-04T10:03:17;99733.72;;;7.35;96.56
29903;BME280;30288;50.514;9.678;2023-04-04T10:05:25;99725.38;;;7.62;90.92
29903;BME280;30288;50.514;9.678;2023-04-04T10:07:31;99731.19;;;7.32;87.99
29903;BME280;30288;50.514;9.678;2023-04-04T10:09:36;99736.13;;;6.89;95.01
29903;BME280;30288;50.514;9.678;2023-04-04T10:11:42;99733.56;;;6.67;92.75
29903;BME280;30288;50.514;9.678;2023-04-04T10:13:51;99742.72;;;6.60;93.59
29903;BME280;30288;50.514;9.678;2023-04-04T10:15:58;99736.81;;;6.46;91.50
29903;BME280;30288;50.514;9.678;2023-04-04T10:18:05;99729.53;;;7.22;97.82
29903;BME280;30288;50.514;9.678;2023-04-04T10:20:14;99724.53;;;7.28;88.43
29903;BME280;30288;50.514;9.678;2023-04-04T10:22:20;99729.53;;;7.37;95.11
29903;BME280;30288;50.514;9.678;2023-04-04T10:24:25;99730.38;;;7.24;95.94
29903;BME280;30288;50.514;9.678;2023-04-04T10:26:31;99726.22;;;7.47;98.00
29903;BME280;30288;50.514;9.678;2023-04-04T10:28:36;99721.16;;;7.99;97.46
29903;BME280;30288;50.514;9.678;2023-04-04T10:30:43;99711.94;;;8.20;91.59
29903;BME280;30288;50.514;9.678;2023-04-04T10:33:09;99712.63;;;8.60;98.77
29903;BME280;30288;50.514;9.678;2023-04-04T10:35:23;99711.00;;;8.59;88.73
29903;BME280;30288;50.514;9.678;2023-04-04T10:37:35;99710.13;;;8.63;89.12
29903;BME280;30288;50.514;9.678;2023-04-04T10:39:48;99701.69;;;8.75;87.55
29903;BME280;30288;50.514;9.678;2023-04-04T10:41:56;99714.97;;;9.00;98.61
29903;BME280;30288;50.514;9.678;2023-04-04T10:44:13;99714.91;;;9.12;92.22
29903;BME280;30288;50.514;9.678;2023-04-04T10:46:22;99713.94;;;9.28;89.91
29903;BME280;30288;50.514;9.678;2023-04-04T10:48:32;99710.25;;;9.72;87.21
29903;BME280;30288;50.514;9.678;2023-04-04T10:50:41;99704.50;;;9.59;88.38
29903;BME280;30288;50.514;9.678;2023-04-04T10:52:47;99709.66;;;9.44;84.70
29903;BME280;30288;50.514;9.678;2023-04-04T10:54:56;99710.00;;;8.85;83.49
29903;BME280;30288;50.514;9.678;2023-04-04T10:57:02;99712.56;;;8.82;86.61
29903;BME280;30288;50.514;9.678;2023-04-04T10:59:10;99709.41;;;8.13;86.75
29903;BME280;30288;50.514;9.678;2023-04-04T11:01:18;99720.22;;;8.47;90.11
29903;BME280;30288;50.514;9.678;2023-04-04T11:03:24;99708.22;;;9.05;91.57
29903;BME280;30288;50.514;9.678;2023-04-04T11:05:31;99700.91;;;8.68;90.19
29903;BME280;30288;50.514;9.678;2023-04-04T11:07:46;99708.59;;;8.11;85.85
29903;BME280;30288;50.514;9.678;2023-04-04T11:10:20;99705.31;;;7.83;87.28
29903;BME280;30288;50.514;9.678;2023-04-04T11:12:28;99695.28;;;7.46;84.26
29903;BME280;30288;50.514;9.678;2023-04-04T11:14:35;99702.81;;;7.30;88.71